Time;durP1;ratioP1;P1;durP2;ratioP2;P2;SDS_P1;SDS_P2;PMS_P1;PMS_P2;Temp;Humidity;BMP_temperature;BMP_pressure;BME280_temperature;BME280_humidity;BME280_pressure;Samples;Min_cycle;Max_cycle;Signal;HPM_P1;HPM_P2
2023/12/03 00:00:16;;;;;;;43.17;23.13;;;2.50;93.50;;;4.16;67.06;101637.63;3080200;46;20438;-68
2023/12/03 00:02:45;;;;;;;37.83;20.57;;;2.50;93.60;;;4.22;67.22;101641.56;3078253;44;20462;-67
2023/12/03 00:05:14;;;;;;;40.93;21.50;;;2.50;93.70;;;4.26;66.82;101638.63;3082617;46;20492;-66
2023/12/03 00:07:43;;;;;;;37.87;21.23;;;2.50;93.70;;;4.31;66.65;101640.91;3081497;46;20455;-66
2023/12/03 00:10:12;;;;;;;40.73;22.00;;;2.60;93.80;;;4.36;66.65;101649.22;3080717;46;20443;-67
2023/12/03 00:12:40;;;;;;;41.60;22.80;;;2.60;93.80;;;4.38;66.68;101645.56;3079629;46;20531;-66
2023/12/03 00:15:09;;;;;;;37.00;21.13;;;2.60;93.80;;;4.39;66.67;101644.63;3081642;46;20583;-67
2023/12/03 00:17:37;;;;;;;38.43;20.70;;;2.60;93.70;;;4.37;66.45;101640.47;3081440;46;20989;-67
2023/12/03 00:20:07;;;;;;;45.43;22.67;;;2.60;93.60;;;4.35;66.74;101643.16;3081031;46;20485;-67
2023/12/03 00:22:36;;;;;;;38.97;21.20;;;2.60;93.60;;;4.37;66.76;101650.88;3079986;46;20510;-67
2023/12/03 00:25:06;;;;;;;41.10;22.03;;;2.60;93.60;;;4.40;66.98;101641.06;3080894;46;20488;-67
2023/12/03 00:27:34;;;;;;;39.43;21.60;;;2.70;93.90;;;4.42;66.80;101643.56;3081018;46;20441;-67
2023/12/03 00:30:03;;;;;;;39.70;21.50;;;2.70;93.80;;;4.46;66.78;101645.00;3081677;46;20609;-68
2023/12/03 00:32:31;;;;;;;42.03;22.57;;;2.70;93.90;;;4.49;66.81;101639.56;3080622;46;20434;-67
2023/12/03 00:35:00;;;;;;;44.03;22.90;;;2.70;93.90;;;4.54;66.67;101642.66;3081336;46;20470;-67
2023/12/03 00:37:28;;;;;;;41.47;22.60;;;2.70;93.90;;;4.55;66.44;101644.31;3081368;46;21014;-68
2023/12/03 00:39:57;;;;;;;41.63;23.17;;;2.70;93.70;;;4.53;66.51;101654.03;3081325;46;20423;-67
2023/12/03 00:42:25;;;;;;;42.10;21.57;;;2.80;93.70;;;4.49;66.37;101650.78;3080447;46;20459;-67
2023/12/03 00:44:54;;;;;;;37.90;21.97;;;2.70;93.60;;;4.47;66.63;101651.88;3080689;46;20755;-68
2023/12/03 00:47:23;;;;;;;42.03;21.30;;;2.70;93.60;;;4.45;66.59;101653.75;3081489;46;20483;-67
2023/12/03 00:49:51;;;;;;;39.70;20.47;;;2.70;93.60;;;4.45;66.65;101656.34;3081102;46;21016;-67
2023/12/03 00:52:20;;;;;;;38.70;21.20;;;2.70;93.70;;;4.47;66.59;101654.50;3079989;46;20563;-68
2023/12/03 00:54:48;;;;;;;35.77;20.10;;;2.70;93.80;;;4.50;66.60;101657.69;3080987;46;20525;-68
2023/12/03 00:57:17;;;;;;;38.70;21.83;;;2.70;93.90;;;4.54;66.89;101659.13;3080895;46;20557;-68
2023/12/03 00:59:45;;;;;;;42.17;21.77;;;2.70;93.90;;;4.58;66.67;101654.53;3080863;46;20431;-67
2023/12/03 01:02:13;;;;;;;41.63;21.90;;;2.70;94.00;;;4.61;66.50;101655.09;3080013;46;20476;-68
2023/12/03 01:04:47;;;;;;;33.77;19.83;;;2.80;94.00;;;4.64;66.41;101660.09;3080403;46;20446;-69
2023/12/03 01:07:15;;;;;;;39.00;21.67;;;2.80;94.00;;;4.68;66.59;101669.34;3080856;46;21019;-67
2023/12/03 01:09:44;;;;;;;40.03;22.17;;;2.80;94.00;;;4.70;66.31;101666.66;3081465;46;20459;-67
2023/12/03 01:12:12;;;;;;;39.20;22.03;;;2.80;94.00;;;4.73;66.35;101674.25;3079969;46;20525;-68
2023/12/03 01:14:41;;;;;;;38.13;22.53;;;2.90;93.90;;;4.72;66.22;101669.97;3080855;46;20536;-67
2023/12/03 01:17:09;;;;;;;37.77;22.03;;;2.90;93.90;;;4.72;66.36;101678.63;3080446;46;20452;-67
2023/12/03 01:19:37;;;;;;;38.87;22.77;;;2.90;93.80;;;4.73;66.45;101680.28;3081135;46;20447;-69
2023/12/03 01:22:06;;;;;;;42.80;23.43;;;2.90;93.90;;;4.74;66.46;101681.09;3080242;46;20480;-65
2023/12/03 01:24:34;;;;;;;40.40;22.27;;;2.90;93.90;;;4.76;66.29;101687.03;3080311;46;21018;-67
2023/12/03 01:27:04;;;;;;;40.83;21.93;;;2.90;93.90;;;4.77;66.37;101691.31;3080091;46;20523;-67
2023/12/03 01:29:33;;;;;;;37.97;20.33;;;2.90;93.90;;;4.77;66.37;101692.16;3080917;46;20443;-67
2023/12/03 01:32:01;;;;;;;37.27;20.40;;;2.90;93.90;;;4.81;66.50;101692.75;3079767;46;20460;-67
2023/12/03 01:34:29;;;;;;;42.57;23.27;;;3.00;94.00;;;4.84;66.22;101702.13;3080543;46;20519;-68
2023/12/03 01:36:58;;;;;;;42.23;22.20;;;3.00;94.00;;;4.84;66.17;101700.34;3080555;46;20451;-67
2023/12/03 01:39:26;;;;;;;37.63;22.27;;;3.00;94.00;;;4.87;66.50;101700.13;3080861;46;20437;-67
2023/12/03 01:41:55;;;;;;;38.07;21.57;;;3.00;93.90;;;4.84;66.39;101708.16;3079876;46;20575;-67
2023/12/03 01:44:23;;;;;;;43.07;22.37;;;3.00;93.80;;;4.83;66.27;101706.50;3079810;46;20440;-68
2023/12/03 01:46:52;;;;;;;39.47;21.73;;;3.00;93.80;;;4.82;66.47;101710.88;3080389;46;21425;-68
2023/12/03 01:49:20;;;;;;;42.67;22.90;;;3.00;93.80;;;4.82;66.64;101710.06;3080269;46;20456;-68
2023/12/03 01:51:50;;;;;;;37.30;22.47;;;3.00;93.80;;;4.86;66.57;101711.50;3079568;46;20455;-68
2023/12/03 01:54:19;;;;;;;41.90;22.23;;;3.00;93.90;;;4.93;66.74;101712.69;3079242;46;21180;-68
2023/12/03 01:56:48;;;;;;;38.23;21.70;;;3.10;94.00;;;4.94;66.33;101719.59;3080341;46;20434;-69
2023/12/03 01:59:16;;;;;;;40.77;22.77;;;3.10;94.00;;;4.93;66.45;101712.69;3080832;46;20427;-67
2023/12/03 02:01:44;;;;;;;42.70;22.40;;;3.10;93.80;;;4.94;65.88;101719.59;3080359;46;20463;-67
2023/12/03 02:04:13;;;;;;;41.83;22.53;;;3.10;93.80;;;4.97;66.34;101719.34;3079918;46;20460;-68
2023/12/03 02:06:41;;;;;;;42.07;23.17;;;3.10;94.00;;;5.04;66.41;101720.53;3080220;46;21024;-67
2023/12/03 02:09:10;;;;;;;41.73;22.30;;;3.10;94.10;;;5.08;66.41;101721.16;3080624;46;20559;-67
2023/12/03 02:11:38;;;;;;;40.23;22.67;;;3.20;94.10;;;5.12;66.38;101717.38;3082725;46;20460;-67
2023/12/03 02:14:07;;;;;;;41.57;21.37;;;3.20;94.00;;;5.15;66.20;101717.97;3082226;46;20467;-67
2023/12/03 02:16:35;;;;;;;45.10;25.03;;;3.30;94.00;;;5.20;66.31;101721.09;3082756;46;20490;-67
2023/12/03 02:19:04;;;;;;;37.63;20.93;;;3.30;94.00;;;5.27;66.57;101711.84;3082838;46;20434;-68
2023/12/03 02:21:32;;;;;;;38.90;23.23;;;3.40;94.10;;;5.33;66.23;101713.97;3082568;46;20544;-68
2023/12/03 02:24:01;;;;;;;38.00;21.70;;;3.40;94.00;;;5.39;66.17;101725.72;3082014;46;21029;-68
2023/12/03 02:26:29;;;;;;;38.63;23.07;;;3.50;93.90;;;5.38;65.77;101714.44;3082087;46;20478;-69
2023/12/03 02:28:57;;;;;;;38.13;22.60;;;3.50;93.70;;;5.33;65.41;101721.81;3082923;46;20437;-67
2023/12/03 02:31:29;;;;;;;38.10;22.13;;;3.50;93.40;;;5.32;65.49;101724.53;3082568;46;21131;-68
2023/12/03 02:34:11;;;;;;;40.13;21.77;;;3.50;93.40;;;5.32;65.73;101729.75;3079347;46;20491;-67
2023/12/03 02:36:40;;;;;;;39.00;21.53;;;3.50;93.50;;;5.34;65.69;101722.63;3081326;43;20565;-67
2023/12/03 02:39:08;;;;;;;43.43;22.73;;;3.50;93.40;;;5.27;65.32;101732.72;3082569;46;21097;-67
2023/12/03 02:41:37;;;;;;;41.87;23.17;;;3.50;93.20;;;5.22;65.66;101734.00;3081272;46;20430;-68
2023/12/03 02:44:05;;;;;;;36.67;21.53;;;3.50;93.30;;;5.20;65.59;101736.72;3081780;46;20519;-67
2023/12/03 02:46:33;;;;;;;39.70;22.33;;;3.50;93.30;;;5.19;65.76;101737.66;3082442;46;20429;-66
2023/12/03 02:49:02;;;;;;;36.97;22.57;;;3.40;93.30;;;5.20;65.74;101736.72;3082877;46;20430;-68
2023/12/03 02:51:30;;;;;;;41.47;22.47;;;3.40;93.40;;;5.19;65.84;101737.66;3082513;46;20438;-66
2023/12/03 02:53:59;;;;;;;41.63;22.87;;;3.40;93.40;;;5.21;65.76;101738.38;3081964;46;20536;-67
2023/12/03 02:56:27;;;;;;;41.40;23.83;;;3.40;93.40;;;5.21;65.59;101732.31;3082310;46;20552;-68
2023/12/03 02:58:55;;;;;;;42.77;24.00;;;3.40;93.40;;;5.16;65.64;101737.88;3082392;46;20457;-67
2023/12/03 03:01:24;;;;;;;40.53;23.20;;;3.40;93.30;;;5.12;65.69;101744.28;3082327;46;20475;-68
2023/12/03 03:03:52;;;;;;;41.63;22.33;;;3.40;93.30;;;5.07;65.74;101743.81;3081768;46;20930;-68
2023/12/03 03:06:21;;;;;;;43.23;22.03;;;3.30;93.20;;;5.06;65.88;101751.75;3082195;46;20516;-69
2023/12/03 03:08:51;;;;;;;46.97;23.93;;;3.30;93.40;;;5.10;66.38;101746.19;3082296;46;21001;-69
2023/12/03 03:11:20;;;;;;;43.50;23.27;;;3.30;93.80;;;5.20;66.65;101746.34;3081742;46;20438;-67
2023/12/03 03:13:48;;;;;;;41.60;22.63;;;3.40;94.00;;;5.28;66.42;101750.03;3081089;46;20584;-67
2023/12/03 03:16:16;;;;;;;39.47;21.70;;;3.40;94.00;;;5.36;66.10;101746.84;3080921;46;21091;-66
2023/12/03 03:18:45;;;;;;;39.20;21.60;;;3.40;93.90;;;5.40;66.01;101743.88;3082265;46;20665;-67
2023/12/03 03:21:14;;;;;;;44.57;23.27;;;3.50;93.90;;;5.44;65.99;101739.28;3081024;46;20437;-67
2023/12/03 03:23:42;;;;;;;37.90;22.23;;;3.50;93.90;;;5.47;65.94;101734.63;3081520;46;20472;-66
2023/12/03 03:26:11;;;;;;;40.73;22.97;;;3.60;93.80;;;5.49;65.68;101748.38;3082310;46;20440;-69
2023/12/03 03:28:39;;;;;;;40.57;21.77;;;3.60;93.80;;;5.48;65.77;101749.34;3081909;46;20543;-71
2023/12/03 03:31:08;;;;;;;34.87;21.23;;;3.60;93.80;;;5.46;65.80;101748.66;3081770;46;20454;-67
2023/12/03 03:33:36;;;;;;;38.87;21.47;;;3.60;93.90;;;5.44;65.86;101753.13;3081140;46;20474;-68
2023/12/03 03:36:05;;;;;;;39.20;20.57;;;3.60;93.80;;;5.42;65.93;101749.81;3082107;46;20461;-67
2023/12/03 03:38:34;;;;;;;39.30;21.53;;;3.60;93.90;;;5.43;66.18;101751.47;3082324;46;20474;-66
2023/12/03 03:41:02;;;;;;;35.20;20.60;;;3.60;94.00;;;5.45;66.45;101752.19;3082288;46;20556;-68
2023/12/03 03:43:30;;;;;;;38.77;20.47;;;3.60;94.00;;;5.47;66.29;101755.50;3081041;46;20453;-66
2023/12/03 03:45:59;;;;;;;36.00;20.40;;;3.60;94.10;;;5.48;66.16;101756.34;3081502;46;20427;-66
2023/12/03 03:48:28;;;;;;;32.77;19.57;;;3.60;94.00;;;5.49;66.32;101752.81;3082109;46;20427;-68
2023/12/03 03:50:56;;;;;;;38.97;19.87;;;3.60;94.10;;;5.54;66.57;101752.44;3081627;46;20468;-67
2023/12/03 03:53:24;;;;;;;37.20;21.53;;;3.60;94.20;;;5.59;66.29;101755.50;3081407;46;20504;-68
2023/12/03 03:55:53;;;;;;;38.80;20.27;;;3.70;94.20;;;5.65;66.34;101758.50;3080641;46;20473;-67
2023/12/03 03:58:21;;;;;;;33.20;19.27;;;3.70;94.10;;;5.70;66.28;101760.78;3081217;46;21186;-66
2023/12/03 04:00:51;;;;;;;35.37;20.10;;;3.80;94.10;;;5.74;66.12;101770.03;3081673;46;20554;-67
2023/12/03 04:03:19;;;;;;;36.27;21.50;;;3.80;94.00;;;5.78;66.13;101774.03;3081247;46;20560;-67
2023/12/03 04:05:48;;;;;;;33.00;19.67;;;3.90;94.30;;;5.79;65.88;101776.56;3081554;46;20549;-67
2023/12/03 04:08:16;;;;;;;35.87;20.37;;;3.80;93.80;;;5.82;65.99;101780.72;3081737;46;20462;-67
2023/12/03 04:10:44;;;;;;;34.27;19.67;;;3.90;93.80;;;5.83;65.76;101783.19;3081660;46;20559;-67
2023/12/03 04:13:13;;;;;;;35.97;20.93;;;3.90;93.80;;;5.82;65.66;101783.34;3080576;46;20561;-67
2023/12/03 04:15:41;;;;;;;35.83;20.53;;;3.90;93.80;;;5.81;65.74;101784.28;3081520;46;20578;-68
2023/12/03 04:18:09;;;;;;;41.37;20.20;;;3.90;93.70;;;5.80;65.56;101787.84;3081867;46;20431;-67
2023/12/03 04:20:38;;;;;;;37.00;19.80;;;3.90;93.70;;;5.77;65.90;101778.47;3081681;46;21046;-68
2023/12/03 04:23:06;;;;;;;37.97;21.57;;;3.90;93.80;;;5.80;66.01;101785.22;3080429;46;20482;-66
2023/12/03 04:25:34;;;;;;;34.73;19.73;;;3.90;94.00;;;5.84;66.44;101790.13;3079583;46;20430;-69
2023/12/03 04:28:04;;;;;;;37.23;19.03;;;3.90;94.00;;;5.90;66.38;101783.59;3080734;46;21020;-67
2023/12/03 04:30:32;;;;;;;41.40;21.60;;;4.00;94.10;;;5.97;66.10;101790.84;3081657;46;20579;-68
2023/12/03 04:33:00;;;;;;;40.53;19.97;;;4.10;94.00;;;6.01;65.77;101787.03;3080854;46;20488;-67
2023/12/03 04:35:29;;;;;;;41.33;22.27;;;4.10;93.90;;;6.03;65.81;101789.53;3080899;46;20529;-67
2023/12/03 04:37:57;;;;;;;42.63;21.43;;;4.10;93.80;;;6.03;65.71;101790.38;3081218;46;21066;-68
2023/12/03 04:40:25;;;;;;;41.87;20.70;;;4.10;93.80;;;6.04;65.80;101796.41;3081098;46;20465;-68
2023/12/03 04:42:54;;;;;;;40.20;21.40;;;4.10;93.80;;;6.05;65.66;101792.84;3081081;46;20573;-67
2023/12/03 04:45:22;;;;;;;40.73;21.53;;;4.10;93.70;;;6.05;65.66;101798.09;3083065;46;20622;-68
2023/12/03 04:47:50;;;;;;;41.53;21.20;;;4.20;93.80;;;6.05;65.76;101793.69;3080297;46;20514;-67
2023/12/03 04:50:19;;;;;;;41.83;20.80;;;4.20;93.80;;;6.09;65.76;101799.50;3081801;46;20452;-68
2023/12/03 04:52:47;;;;;;;43.60;22.43;;;4.20;93.80;;;6.11;65.83;101800.19;3080760;46;20534;-68
2023/12/03 04:55:16;;;;;;;38.90;21.37;;;4.20;93.80;;;6.12;65.74;101804.50;3081088;46;20462;-68
2023/12/03 04:57:44;;;;;;;45.13;21.80;;;4.30;93.80;;;6.14;65.71;101802.59;3080737;46;20503;-67
2023/12/03 05:00:13;;;;;;;45.40;24.13;;;4.30;93.70;;;6.13;65.45;101800.94;3080967;46;20584;-67
2023/12/03 05:02:43;;;;;;;47.70;22.70;;;4.30;93.50;;;6.12;65.55;101804.50;3080567;46;20445;-67
2023/12/03 05:05:11;;;;;;;44.93;22.73;;;4.30;93.50;;;6.10;65.81;101806.41;3079813;46;21041;-68
2023/12/03 05:07:40;;;;;;;44.60;22.57;;;4.20;93.60;;;6.11;65.77;101814.09;3079896;44;20470;-69
2023/12/03 05:10:08;;;;;;;43.70;21.70;;;4.20;93.70;;;6.11;65.77;101814.09;3081497;46;20427;-68
2023/12/03 05:12:37;;;;;;;36.50;20.87;;;4.20;93.60;;;6.14;65.77;101813.88;3080189;46;20423;-68
2023/12/03 05:15:07;;;;;;;41.53;21.77;;;4.30;93.70;;;6.17;65.48;101812.81;3079402;46;21019;-68
2023/12/03 05:17:35;;;;;;;45.00;22.50;;;4.30;93.70;;;6.20;65.70;101817.81;3080784;46;20538;-68
2023/12/03 05:20:08;;;;;;;47.07;22.43;;;4.30;93.60;;;6.20;65.27;101815.19;3081166;46;21019;-68
2023/12/03 05:22:36;;;;;;;43.43;22.10;;;4.30;93.50;;;6.19;65.22;101821.34;3080717;46;20508;-68
2023/12/03 05:25:06;;;;;;;43.07;21.80;;;4.30;93.70;;;6.16;65.29;101821.59;3080413;46;20537;-68
2023/12/03 05:27:34;;;;;;;47.00;22.50;;;4.30;93.50;;;6.14;65.40;101829.56;3079633;46;20554;-68
2023/12/03 05:30:05;;;;;;;46.00;24.77;;;4.30;93.50;;;6.17;65.41;101832.88;3081386;46;20433;-67
2023/12/03 05:32:33;;;;;;;42.73;22.13;;;4.30;93.60;;;6.18;65.41;101840.59;3079760;46;20545;-67
2023/12/03 05:35:02;;;;;;;38.83;22.00;;;4.30;93.60;;;6.20;65.53;101849.16;3080740;46;20515;-67
2023/12/03 05:37:30;;;;;;;43.80;21.93;;;4.30;93.60;;;6.22;65.27;101841.19;3080780;46;20491;-67
2023/12/03 05:39:59;;;;;;;41.80;22.33;;;4.40;93.60;;;6.25;65.31;101846.19;3080996;46;20463;-67
2023/12/03 05:42:28;;;;;;;40.97;21.30;;;4.40;93.40;;;6.23;65.10;101854.13;3079991;46;20491;-69
2023/12/03 05:44:56;;;;;;;37.10;21.33;;;4.30;93.20;;;6.22;65.06;101864.72;3079513;46;20450;-66
2023/12/03 05:47:25;;;;;;;42.10;22.27;;;4.40;93.20;;;6.20;65.01;101864.00;3080639;46;21000;-67
2023/12/03 05:49:53;;;;;;;40.13;21.53;;;4.30;93.20;;;6.20;65.11;101869.25;3080664;46;20490;-67
2023/12/03 05:52:21;;;;;;;43.97;22.17;;;4.30;93.30;;;6.22;65.11;101872.56;3080081;46;20455;-68
2023/12/03 05:54:50;;;;;;;40.90;22.73;;;4.30;93.30;;;6.21;65.09;101871.72;3079950;46;21085;-68
2023/12/03 05:57:18;;;;;;;44.23;22.40;;;4.30;93.30;;;6.20;65.01;101864.84;3080211;46;20453;-67
2023/12/03 05:59:47;;;;;;;39.60;21.93;;;4.30;93.30;;;6.21;65.21;101868.28;3080447;46;20438;-67
2023/12/03 06:02:16;;;;;;;41.83;22.80;;;4.40;93.30;;;6.24;65.16;101881.13;3079946;46;20434;-68
2023/12/03 06:04:44;;;;;;;39.93;21.80;;;4.40;93.30;;;6.25;64.98;101882.78;3080095;46;20458;-67
2023/12/03 06:07:13;;;;;;;42.10;22.97;;;4.40;93.20;;;6.25;64.71;101881.00;3079703;46;21030;-68
2023/12/03 06:09:41;;;;;;;41.73;20.50;;;4.40;93.10;;;6.26;64.86;101885.28;3079517;46;20982;-67
2023/12/03 06:12:10;;;;;;;37.30;21.30;;;4.40;93.10;;;6.23;64.76;101880.28;3079511;46;20527;-66
2023/12/03 06:14:38;;;;;;;39.30;21.23;;;4.40;93.00;;;6.22;64.63;101877.78;3079736;46;20521;-67
2023/12/03 06:17:08;;;;;;;40.13;22.07;;;4.40;93.00;;;6.20;64.80;101874.47;3079710;46;20498;-67
2023/12/03 06:19:36;;;;;;;38.10;21.07;;;4.40;93.10;;;6.19;64.70;101884.09;3080537;46;20430;-68
2023/12/03 06:22:04;;;;;;;41.10;21.50;;;4.40;93.00;;;6.17;64.75;101872.91;3080299;46;20430;-67
2023/12/03 06:24:33;;;;;;;44.90;22.37;;;4.40;93.00;;;6.13;64.26;101879.34;3080042;46;21020;-69
2023/12/03 06:27:02;;;;;;;41.40;23.57;;;4.40;92.80;;;6.03;64.33;101874.00;3079058;46;20423;-68
2023/12/03 06:29:31;;;;;;;43.67;23.40;;;4.30;92.70;;;5.91;64.67;101881.91;3080515;46;20559;-68
2023/12/03 06:31:59;;;;;;;46.70;23.50;;;4.30;92.60;;;5.84;64.76;101888.53;3079230;46;20496;-69
2023/12/03 06:34:27;;;;;;;53.53;26.93;;;4.20;92.70;;;5.75;64.97;101878.78;3079740;46;20451;-67
2023/12/03 06:36:56;;;;;;;48.20;23.43;;;4.10;92.70;;;5.67;65.12;101886.34;3079825;46;21108;-69
2023/12/03 06:39:24;;;;;;;48.93;26.87;;;4.10;92.70;;;5.56;65.60;101894.97;3079949;46;20548;-68
2023/12/03 06:41:53;;;;;;;51.43;24.77;;;4.00;92.90;;;5.46;65.89;101888.78;3079785;46;20508;-67
2023/12/03 06:44:21;;;;;;;49.77;26.20;;;3.90;92.90;;;5.37;66.30;101886.84;3079340;46;20553;-68
2023/12/03 06:47:05;;;;;;;56.90;26.93;;;3.80;93.10;;;5.32;66.46;101895.00;3079572;46;20428;-67
2023/12/03 06:49:34;;;;;;;48.60;23.97;;;3.80;93.20;;;5.31;66.27;101901.16;3080122;46;20463;-67
2023/12/03 06:52:03;;;;;;;53.97;23.97;;;3.70;93.30;;;5.34;66.69;101908.78;3079849;46;20431;-67
2023/12/03 06:54:31;;;;;;;50.10;25.43;;;3.70;93.60;;;5.41;66.42;101917.81;3079569;46;20469;-68
2023/12/03 06:57:00;;;;;;;50.70;25.63;;;3.70;93.80;;;5.50;66.83;101908.47;3081758;46;20451;-67
2023/12/03 06:59:28;;;;;;;49.90;24.07;;;3.70;94.10;;;5.56;66.31;101917.66;3082234;46;20999;-67
2023/12/03 07:01:56;;;;;;;50.37;25.37;;;3.70;94.00;;;5.54;66.13;101916.94;3082460;46;20475;-67
2023/12/03 07:04:25;;;;;;;43.17;23.57;;;3.70;93.80;;;5.51;66.18;101925.81;3082146;46;20450;-68
2023/12/03 07:06:53;;;;;;;29.40;16.60;;;3.70;93.70;;;5.51;65.98;101924.97;3081719;46;20446;-67
2023/12/03 07:09:22;;;;;;;30.17;16.53;;;3.70;93.50;;;5.52;65.55;101924.00;3082557;46;20433;-67
2023/12/03 07:12:08;;;;;;;31.03;17.87;;;3.70;93.30;;;5.55;65.63;101926.41;3081589;46;20473;-67
2023/12/03 07:14:36;;;;;;;27.47;17.00;;;3.70;93.30;;;5.63;65.42;101924.06;3081915;46;20442;-68
2023/12/03 07:17:04;;;;;;;26.07;16.37;;;3.70;93.30;;;5.64;65.16;101925.72;3082308;46;21113;-66
2023/12/03 07:19:33;;;;;;;25.00;15.60;;;3.80;93.10;;;5.65;64.42;101930.00;3082618;46;21101;-67
2023/12/03 07:22:01;;;;;;;27.37;16.20;;;3.80;92.90;;;5.66;64.63;101929.09;3081295;46;21064;-67
2023/12/03 07:24:30;;;;;;;25.10;15.53;;;3.80;92.80;;;5.68;64.94;101935.81;3080735;46;20465;-68
2023/12/03 07:26:58;;;;;;;23.23;15.53;;;3.80;92.80;;;5.67;63.44;101933.34;3081211;46;21073;-66
2023/12/03 07:29:26;;;;;;;33.17;18.27;;;3.80;92.30;;;5.62;63.77;101935.44;3081773;46;20578;-67
2023/12/03 07:31:55;;;;;;;33.73;18.87;;;3.90;92.40;;;5.58;64.11;101936.63;3081965;46;20481;-66
2023/12/03 07:34:23;;;;;;;37.83;19.00;;;3.80;92.40;;;5.53;64.56;101946.56;3080137;46;20725;-68
2023/12/03 07:36:52;;;;;;;38.80;20.17;;;3.80;92.50;;;5.48;64.70;101934.69;3080831;46;20603;-69
2023/12/03 07:39:24;;;;;;;38.93;21.40;;;3.80;92.60;;;5.41;65.06;101938.72;3077037;46;20433;-68
2023/12/03 07:41:54;;;;;;;38.17;20.03;;;3.80;92.70;;;5.35;65.74;101941.75;3081575;46;20431;-67
2023/12/03 07:44:22;;;;;;;34.13;18.93;;;3.70;92.90;;;5.34;65.79;101941.88;3080544;46;21008;-67
2023/12/03 07:46:53;;;;;;;40.77;19.97;;;3.70;92.90;;;5.36;65.53;101945.19;3081416;46;20540;-67
2023/12/03 07:49:22;;;;;;;31.07;17.50;;;3.70;93.00;;;5.39;65.68;101939.75;3081860;46;20458;-68
2023/12/03 07:51:50;;;;;;;28.37;15.13;;;3.60;93.10;;;5.44;65.50;101950.72;3080932;46;21856;-66
2023/12/03 07:54:19;;;;;;;30.63;17.63;;;3.60;93.00;;;5.49;65.44;101941.56;3079111;43;21001;-68
2023/12/03 07:56:47;;;;;;;38.87;19.37;;;3.60;93.00;;;5.55;65.32;101955.13;3081173;46;20569;-68
2023/12/03 07:59:16;;;;;;;37.27;18.47;;;3.70;93.20;;;5.54;65.26;101948.25;3081267;46;20592;-67
2023/12/03 08:01:44;;;;;;;32.77;17.77;;;3.70;93.20;;;5.53;65.02;101946.56;3080288;46;21090;-68
2023/12/03 08:04:13;;;;;;;35.63;18.47;;;3.70;93.20;;;5.53;64.93;101946.56;3081171;46;21024;-66
2023/12/03 08:06:42;;;;;;;35.50;18.80;;;3.70;93.20;;;5.53;65.30;101947.41;3076520;46;20943;-68
2023/12/03 08:09:11;;;;;;;34.80;19.13;;;3.70;93.20;;;5.54;65.36;101945.66;3078514;46;20511;-68
2023/12/03 08:11:40;;;;;;;38.27;19.07;;;3.70;93.20;;;5.54;65.40;101948.25;3077757;46;20431;-68
2023/12/03 08:14:08;;;;;;;36.90;19.17;;;3.70;93.30;;;5.56;65.37;101948.97;3076974;46;20570;-68
2023/12/03 08:16:36;;;;;;;36.77;19.30;;;3.70;93.30;;;5.64;65.58;101944.00;3079504;46;20560;-69
2023/12/03 08:19:05;;;;;;;38.87;19.30;;;3.80;93.60;;;5.75;65.57;101949.28;3079537;46;20434;-69
2023/12/03 08:21:36;;;;;;;29.87;17.37;;;3.80;93.60;;;5.83;65.08;101949.53;3079617;43;21619;-68
2023/12/03 08:24:05;;;;;;;30.03;17.53;;;3.90;93.60;;;5.88;65.07;101952.66;3080052;46;20442;-70
2023/12/03 08:26:34;;;;;;;29.00;16.53;;;3.90;93.40;;;5.89;64.68;101949.97;3077459;46;20434;-69
2023/12/03 08:29:05;;;;;;;30.23;16.07;;;4.00;93.30;;;5.91;64.69;101947.22;3077619;46;20423;-69
2023/12/03 08:31:34;;;;;;;28.63;16.03;;;4.00;93.20;;;5.90;64.37;101945.53;3078529;43;20443;-69
2023/12/03 08:34:03;;;;;;;31.73;17.40;;;4.10;93.00;;;5.87;64.41;101951.84;3076445;46;20450;-69
2023/12/03 08:36:32;;;;;;;29.70;17.20;;;4.10;92.90;;;5.85;64.29;101947.66;3072416;46;20434;-70
2023/12/03 08:39:05;;;;;;;30.13;16.00;;;4.00;92.80;;;5.87;64.66;101959.66;3074614;46;20462;-68
2023/12/03 08:41:36;;;;;;;34.00;17.87;;;4.10;92.90;;;5.87;64.35;101961.47;3074686;43;21175;-69
2023/12/03 08:44:05;;;;;;;31.60;16.87;;;4.10;92.80;;;5.86;64.26;101970.25;3078083;46;20442;-67
2023/12/03 08:46:33;;;;;;;31.37;17.17;;;4.10;92.70;;;5.83;64.38;101967.81;3078151;46;20444;-68
2023/12/03 08:49:02;;;;;;;34.93;18.27;;;4.10;92.70;;;5.82;64.68;101966.16;3077013;46;20654;-69
2023/12/03 08:51:31;;;;;;;28.30;16.07;;;4.00;92.70;;;5.83;64.64;101971.28;3077246;46;20472;-69
2023/12/03 08:53:59;;;;;;;29.13;16.23;;;4.00;92.80;;;5.84;64.57;101983.44;3076870;43;20511;-68
2023/12/03 08:56:28;;;;;;;31.03;17.63;;;4.00;92.80;;;5.85;64.41;101985.06;3076897;46;20434;-68
2023/12/03 08:58:56;;;;;;;26.83;15.10;;;4.10;92.90;;;5.82;64.50;101977.47;3078169;46;20488;-70
2023/12/03 09:01:24;;;;;;;28.30;16.70;;;4.10;92.80;;;5.77;64.72;101984.78;3077232;46;20544;-69
2023/12/03 09:03:53;;;;;;;29.03;14.97;;;4.10;92.80;;;5.77;64.62;101983.97;3077156;46;20477;-67
2023/12/03 09:06:21;;;;;;;28.00;15.27;;;4.10;92.80;;;5.81;65.04;101988.00;3078231;46;20434;-70
2023/12/03 09:08:50;;;;;;;27.67;15.93;;;4.00;92.90;;;5.84;64.75;101985.16;3077971;43;20427;-67
2023/12/03 09:11:19;;;;;;;29.90;16.57;;;4.10;93.00;;;5.89;64.79;101990.91;3077234;46;20471;-68
2023/12/03 09:13:47;;;;;;;23.80;14.50;;;4.10;93.00;;;5.95;64.65;101998.28;3076867;46;20455;-68
2023/12/03 09:16:15;;;;;;;26.40;15.57;;;4.10;93.00;;;5.98;64.25;102000.69;3079649;46;20496;-69
2023/12/03 09:18:46;;;;;;;25.73;14.90;;;4.10;92.90;;;5.98;64.39;102005.91;3075448;46;20493;-68
2023/12/03 09:21:16;;;;;;;25.67;14.93;;;4.10;93.20;;;5.96;64.30;102013.03;3077958;46;20430;-69
2023/12/03 09:23:45;;;;;;;28.93;15.60;;;4.10;92.80;;;5.93;64.49;102014.09;3077473;46;21039;-68
2023/12/03 09:26:13;;;;;;;27.33;15.57;;;4.10;92.80;;;5.88;64.37;102010.13;3076852;46;21129;-69
2023/12/03 09:28:41;;;;;;;26.33;15.37;;;4.10;92.70;;;5.82;64.78;102018.41;3076853;46;20569;-67
2023/12/03 09:31:10;;;;;;;27.83;15.47;;;4.10;92.70;;;5.78;64.72;102012.56;3076554;46;20576;-68
2023/12/03 09:33:39;;;;;;;28.97;15.37;;;4.10;92.80;;;5.79;64.92;102008.19;3074512;46;21065;-69
2023/12/03 09:36:08;;;;;;;32.27;17.47;;;4.00;92.90;;;5.81;64.96;102019.34;3076982;46;20552;-68
2023/12/03 09:38:36;;;;;;;33.80;15.90;;;4.10;93.00;;;5.85;64.74;102010.34;3074769;44;20430;-66
2023/12/03 09:41:13;;;;;;;27.80;16.37;;;4.00;92.90;;;5.87;64.92;102018.94;3076310;46;21018;-67
2023/12/03 09:43:51;;;;;;;31.40;16.77;;;4.10;93.00;;;5.87;64.95;102017.13;3075189;46;20470;-67
2023/12/03 09:46:23;;;;;;;32.07;16.90;;;4.10;93.10;;;5.83;65.04;102025.28;3074636;46;20478;-67
2023/12/03 09:48:55;;;;;;;25.47;15.50;;;4.10;93.00;;;5.85;65.10;102028.66;3074310;46;20466;-67
2023/12/03 09:51:24;;;;;;;33.60;18.92;;;4.10;93.10;;;5.94;64.89;102030.59;3072779;46;22321;-68
2023/12/03 09:53:58;;;;;;;31.83;18.27;;;4.10;93.20;;;5.89;65.03;102023.13;3072195;46;20466;-69
2023/12/03 09:56:29;;;;;;;30.60;17.63;;;4.10;93.20;;;5.81;65.21;102020.19;3076299;46;20470;-68
2023/12/03 09:58:59;;;;;;;36.63;19.57;;;4.10;93.10;;;5.77;65.68;102025.75;3076025;46;20434;-68
2023/12/03 10:01:30;;;;;;;36.13;18.30;;;4.10;93.10;;;5.73;65.71;102027.72;3071302;46;20536;-69
2023/12/03 10:04:01;;;;;;;39.17;19.57;;;4.10;93.20;;;5.76;65.63;102029.28;3071487;43;20554;-68
2023/12/03 10:06:33;;;;;;;37.30;19.90;;;4.10;93.30;;;5.77;65.72;102034.41;3071610;46;20485;-68
2023/12/03 10:09:05;;;;;;;34.17;18.77;;;4.10;93.40;;;5.75;65.64;102025.03;3073796;46;21032;-70
2023/12/03 10:11:40;;;;;;;32.77;18.20;;;4.00;93.30;;;5.75;65.77;102025.84;3072424;46;20454;-68
2023/12/03 10:14:12;;;;;;;35.40;18.37;;;4.10;93.40;;;5.77;65.67;102034.41;3074114;46;20493;-68
2023/12/03 10:16:51;;;;;;;38.57;18.90;;;4.10;93.40;;;5.82;65.88;102031.47;3071553;46;20462;-68
2023/12/03 10:19:27;;;;;;;35.60;18.27;;;4.00;93.60;;;5.90;65.91;102023.91;3077115;46;20434;-69